Clara — V2CC9 — position and weather

sailwx.info

Track history (hours):
 
Tides and Currents Weather Stations Pressure Air Temp Water Temp Dewpoint Dewpoint Depression Visibility Wind Speed Wind Dir Waves Ship Positions

Clara

Last reported at 2015-Mar-01 06:33 UTC. Time now 2015-Mar-02 03:33 UTC.
Position N 47°06' W 005°15'.

Length 108 m; draft 6 m.

Type: Cargo ship. MMSI: 304983000.

Date/timePositionNaut miles runAvg speedWind from/ knotsBaromVisibWave heightAir tempDewpointWater temp
2015-Mar-01 06:33N 47°06' W 005°15'6410.7
2015-Mar-01 00:33N 48°08' W 005°44'10 9.9
2015-Feb-28 23:33N 48°17' W 005°49'9 9.0
2015-Feb-28 22:33N 48°26' W 005°52'274 8.8
2015-Feb-27 15:32N 50°35' E 000°19'1010.6
2015-Feb-27 14:33N 50°38' E 000°35'1211.6
2015-Feb-27 13:33N 50°45' E 000°50'1812.8
2015-Feb-27 12:11N 50°56' E 001°12'813.4
2015-Feb-27 11:34N 51°01' E 001°22'1312.5
2015-Feb-27 10:33N 51°09' E 001°38'1211.6
2015-Feb-27 09:33N 51°17' E 001°50'1111.0
2015-Feb-27 08:33N 51°26' E 002°00'1110.8
2015-Feb-27 07:33N 51°35' E 002°11'1111.2
2015-Feb-27 06:33N 51°44' E 002°22'9711.9
2015-Feb-26 22:23N 52°59' E 004°02'1110.7
2015-Feb-26 21:22N 53°06' E 004°15'2411.1
2015-Feb-26 19:12N 53°27' E 004°37'711.4
2015-Feb-26 18:33N 53°30' E 004°48'1111.4
2015-Feb-26 17:33N 53°34' E 005°06'1111.3
2015-Feb-26 16:33N 53°38' E 005°24'1110.6
2015-Feb-26 15:33N 53°41' E 005°41'6410.7
2015-Feb-26 09:33N 53°59' E 007°25'1212.3
2015-Feb-26 08:33N 54°01' E 007°45'1212.4
2015-Feb-26 07:33N 54°01' E 008°07'1313.0
2015-Feb-26 06:34N 53°59' E 008°28'1111.0
2015-Feb-26 05:33N 53°52' E 008°43'9 9.0
2015-Feb-26 04:34N 53°51' E 008°59'6 6.4
2015-Feb-26 03:33N 53°54' E 009°09'2 1.6
2015-Feb-26 02:32N 53°55' E 009°11'0 0.1
2015-Feb-26 01:32N 53°55' E 009°11'0 0.0
2015-Feb-26 00:32N 53°55' E 009°11'0 0.0
2015-Feb-25 23:33N 53°55' E 009°11'6 6.0
2015-Feb-25 22:33N 53°59' E 009°17'9 8.5
2015-Feb-25 21:30N 54°08' E 009°20'8 8.5
2015-Feb-25 20:33N 54°12' E 009°33'7 6.9
2015-Feb-25 19:33N 54°17' E 009°40'6 5.9
2015-Feb-25 18:33N 54°21' E 009°47'7 7.1
2015-Feb-25 17:34N 54°21' E 009°59'5 5.4
2015-Feb-25 16:33N 54°22' E 010°08'2 2.2
2015-Feb-25 15:33N 54°23' E 010°11'8 8.5
2015-Feb-25 14:33N 54°30' E 010°19'1010.1
2015-Feb-25 13:34N 54°34' E 010°35'1411.6
2015-Feb-25 12:22N 54°36' E 010°59'1012.2
2015-Feb-25 11:33N 54°35' E 011°16'1212.0
2015-Feb-25 10:33N 54°31' E 011°35'1111.3
2015-Feb-25 09:33N 54°27' E 011°53'1010.4
2015-Feb-25 08:33N 54°29' E 012°11'204856.5
2015-Feb-25 08:33N 54°09' E 012°06'2928.8
2015-Feb-25 07:33N 54°37' E 012°18'9 8.7
2015-Feb-25 06:33N 54°43' E 012°30'1111.0
2015-Feb-25 05:32N 54°47' E 012°47'1111.6
2015-Feb-25 04:33N 54°47' E 013°07'1211.7
2015-Feb-25 03:33N 54°46' E 013°27'1211.7
2015-Feb-25 02:33N 54°44' E 013°47'1211.7
2015-Feb-25 01:33N 54°40' E 014°06'13911.6
2015-Feb-24 13:33N 54°56' E 018°06'1212.0
2015-Feb-24 12:33N 54°56' E 018°27'1211.8
2015-Feb-24 11:33N 54°51' E 018°47'1110.8
2015-Feb-24 10:33N 54°43' E 018°59'1212.1
2015-Feb-24 09:33N 54°33' E 018°50'10 9.8
2015-Feb-24 08:33N 54°32' E 018°33'0 0.1
2015-Feb-24 07:33N 54°32' E 018°33'0 0.0
2015-Feb-24 06:33N 54°32' E 018°33'0 0.0
2015-Feb-24 05:33N 54°32' E 018°33'0 0.0
2015-Feb-24 04:33N 54°32' E 018°33'0 0.0
2015-Feb-24 03:33N 54°32' E 018°33'0 0.0
2015-Feb-24 02:30N 54°32' E 018°33'0 0.0
2015-Feb-24 01:33N 54°32' E 018°33'0 0.0
2015-Feb-24 00:33N 54°32' E 018°33'0 0.0
2015-Feb-23 23:33N 54°32' E 018°33'0 0.0
2015-Feb-23 22:33N 54°32' E 018°33'0 0.0
2015-Feb-23 21:33N 54°32' E 018°33'0 0.0
2015-Feb-23 20:33N 54°32' E 018°33'0 0.0
2015-Feb-23 19:33N 54°32' E 018°33'0 0.0
2015-Feb-23 18:33N 54°32' E 018°33'0 0.0
2015-Feb-23 17:33N 54°32' E 018°33'0 0.0
2015-Feb-23 16:33N 54°32' E 018°33'0 0.0
2015-Feb-23 15:33N 54°32' E 018°33'0 0.0
2015-Feb-23 14:33N 54°32' E 018°33'0 0.0
2015-Feb-23 13:33N 54°32' E 018°33'0 0.0
2015-Feb-23 12:33N 54°32' E 018°33'0 0.0
2015-Feb-23 11:33N 54°32' E 018°33'0 0.0
2015-Feb-23 10:33N 54°32' E 018°33'0 0.0
2015-Feb-23 09:33N 54°32' E 018°33'0 0.0
2015-Feb-23 08:33N 54°32' E 018°33'0 0.0
2015-Feb-23 07:33N 54°32' E 018°33'0 0.0
2015-Feb-23 06:33N 54°32' E 018°33'0 0.0
2015-Feb-23 05:33N 54°32' E 018°33'0 0.0
2015-Feb-23 04:33N 54°32' E 018°33'0 0.0
2015-Feb-23 03:33N 54°32' E 018°33'0 0.0
2015-Feb-23 02:33N 54°32' E 018°33'0 0.0
2015-Feb-23 01:33N 54°32' E 018°33'0 0.0
2015-Feb-23 00:33N 54°32' E 018°33'0 0.0
2015-Feb-22 23:33N 54°32' E 018°33'0 0.0
2015-Feb-22 22:33N 54°32' E 018°33'0 0.0
2015-Feb-22 21:33N 54°32' E 018°33'0 0.0
2015-Feb-22 20:33N 54°32' E 018°33'0 0.0
2015-Feb-22 19:33N 54°32' E 018°33'4 4.1
2015-Feb-22 18:33N 54°32' E 018°40'9 9.3
2015-Feb-22 17:33N 54°37' E 018°54'1110.8
2015-Feb-22 16:33N 54°46' E 018°45'1313.0
2015-Feb-22 15:34N 54°54' E 018°27'1413.2
2015-Feb-22 14:28N 54°54' E 018°02'10813.0
2015-Feb-22 06:09N 54°38' E 014°57'912.6
2015-Feb-22 05:26N 54°37' E 014°41'1512.5
2015-Feb-22 04:13N 54°37' E 014°15'912.8
2015-Feb-22 03:33N 54°39' E 014°01'1312.8
2015-Feb-22 02:34N 54°43' E 013°40'1312.5
2015-Feb-22 01:33N 54°47' E 013°19'2711.6
2015-Feb-21 23:13N 55°06' E 012°46'812.5
2015-Feb-21 22:33N 55°13' E 012°39'1212.0
2015-Feb-21 21:34N 55°25' E 012°38'1111.3
2015-Feb-21 20:34N 55°35' E 012°29'1 1.1
2015-Feb-21 19:33N 55°36' E 012°29'0 0.0
2015-Feb-21 18:33N 55°36' E 012°29'0 0.0
2015-Feb-21 17:33N 55°36' E 012°29'0 0.0
2015-Feb-21 16:33N 55°36' E 012°29'0 0.0
2015-Feb-21 15:33N 55°36' E 012°29'0 0.0
2015-Feb-21 14:33N 55°36' E 012°29'0 0.0
2015-Feb-21 13:33N 55°36' E 012°29'0 0.0
2015-Feb-21 12:33N 55°36' E 012°29'0 0.0
2015-Feb-21 11:33N 55°36' E 012°29'0 0.0
2015-Feb-21 10:33N 55°36' E 012°29'0 0.0
2015-Feb-21 09:33N 55°36' E 012°29'0 0.0
2015-Feb-21 08:33N 55°36' E 012°29'0 0.0
2015-Feb-21 07:33N 55°36' E 012°29'0 0.0
2015-Feb-21 06:33N 55°36' E 012°29'0 0.0
2015-Feb-21 05:33N 55°36' E 012°29'0 0.0
2015-Feb-21 04:33N 55°36' E 012°29'0 0.0
2015-Feb-21 03:33N 55°36' E 012°29'0 0.0
2015-Feb-21 02:33N 55°36' E 012°29'0 0.0
2015-Feb-21 01:33N 55°36' E 012°29'0 0.0
2015-Feb-21 00:33N 55°36' E 012°29'0 0.0
2015-Feb-20 23:33N 55°36' E 012°29'0 0.0
2015-Feb-20 22:33N 55°36' E 012°29'0 0.0
2015-Feb-20 21:33N 55°36' E 012°29'0 0.0
2015-Feb-20 20:33N 55°36' E 012°29'0 0.0
2015-Feb-20 19:33N 55°36' E 012°29'0 0.0
2015-Feb-20 18:33N 55°36' E 012°29'0 0.0
2015-Feb-20 17:33N 55°36' E 012°29'0 0.0
2015-Feb-20 16:33N 55°36' E 012°29'0 0.0
2015-Feb-20 15:33N 55°36' E 012°29'1 1.0
2015-Feb-20 14:34N 55°35' E 012°29'9 8.5
2015-Feb-20 13:33N 55°29' E 012°39'9 9.1
2015-Feb-20 12:33N 55°20' E 012°40'1111.2
2015-Feb-20 11:34N 55°08' E 012°41'2311.2
2015-Feb-20 09:33N 54°46' E 012°45'1411.3
2015-Feb-20 08:20N 54°37' E 012°27'911.3
2015-Feb-20 07:33N 54°30' E 012°16'1010.1
2015-Feb-20 06:34N 54°24' E 012°03'1111.1
2015-Feb-20 05:33N 54°25' E 011°44'1110.8
2015-Feb-20 04:34N 54°30' E 011°28'1211.5
2015-Feb-20 03:34N 54°35' E 011°10'1611.3
2015-Feb-20 02:07N 54°34' E 010°42'611.1
2015-Feb-20 01:33N 54°32' E 010°31'1110.6
2015-Feb-20 00:33N 54°27' E 010°15'7 6.6
2015-Feb-19 23:33N 54°22' E 010°08'0 0.5
2015-Feb-19 22:33N 54°22' E 010°08'0 0.0
2015-Feb-19 21:31N 54°22' E 010°08'1 1.2
2015-Feb-19 20:33N 54°22' E 010°06'7 7.5
2015-Feb-19 19:33N 54°21' E 009°53'4 4.5
2015-Feb-19 18:33N 54°21' E 009°46'8 7.7
2015-Feb-19 17:29N 54°14' E 009°37'12 8.2
2015-Feb-19 16:03N 54°08' E 009°20'4 8.3
2015-Feb-19 15:33N 54°04' E 009°19'6 6.4
2015-Feb-19 14:33N 53°58' E 009°15'5 5.5
2015-Feb-19 13:33N 53°54' E 009°09'5 5.4
2015-Feb-19 12:33N 53°51' E 009°00'1212.0
2015-Feb-19 11:33N 53°55' E 008°41'1212.5
2015-Feb-19 10:33N 53°59' E 008°21'1211.5
2015-Feb-19 09:30N 53°58' E 008°01'1412.4
2015-Feb-19 08:24N 53°55' E 007°38'  
Track history (hours):
 
Tides and Currents Weather Stations Pressure Air Temp Water Temp Dewpoint Dewpoint Depression Visibility Wind Speed Wind Dir Waves Ship Positions

Clara

Last reported at 2015-Mar-01 06:33 UTC. Time now 2015-Mar-02 03:33 UTC.
Position N 47°06' W 005°15'.

Length 108 m; draft 6 m.

Type: Cargo ship. MMSI: 304983000.

Date/timePositionNaut miles runAvg speedWind from/ knotsBaromVisibWave heightAir tempDewpointWater temp
2015-Mar-01 06:33N 47°06' W 005°15'6410.7
2015-Mar-01 00:33N 48°08' W 005°44'10 9.9
2015-Feb-28 23:33N 48°17' W 005°49'9 9.0
2015-Feb-28 22:33N 48°26' W 005°52'274 8.8
2015-Feb-27 15:32N 50°35' E 000°19'1010.6
2015-Feb-27 14:33N 50°38' E 000°35'1211.6
2015-Feb-27 13:33N 50°45' E 000°50'1812.8
2015-Feb-27 12:11N 50°56' E 001°12'813.4
2015-Feb-27 11:34N 51°01' E 001°22'1312.5
2015-Feb-27 10:33N 51°09' E 001°38'1211.6
2015-Feb-27 09:33N 51°17' E 001°50'1111.0
2015-Feb-27 08:33N 51°26' E 002°00'1110.8
2015-Feb-27 07:33N 51°35' E 002°11'1111.2
2015-Feb-27 06:33N 51°44' E 002°22'9711.9
2015-Feb-26 22:23N 52°59' E 004°02'1110.7
2015-Feb-26 21:22N 53°06' E 004°15'2411.1
2015-Feb-26 19:12N 53°27' E 004°37'711.4
2015-Feb-26 18:33N 53°30' E 004°48'1111.4
2015-Feb-26 17:33N 53°34' E 005°06'1111.3
2015-Feb-26 16:33N 53°38' E 005°24'1110.6
2015-Feb-26 15:33N 53°41' E 005°41'6410.7
2015-Feb-26 09:33N 53°59' E 007°25'1212.3
2015-Feb-26 08:33N 54°01' E 007°45'1212.4
2015-Feb-26 07:33N 54°01' E 008°07'1313.0
2015-Feb-26 06:34N 53°59' E 008°28'1111.0
2015-Feb-26 05:33N 53°52' E 008°43'9 9.0
2015-Feb-26 04:34N 53°51' E 008°59'6 6.4
2015-Feb-26 03:33N 53°54' E 009°09'2 1.6
2015-Feb-26 02:32N 53°55' E 009°11'0 0.1
2015-Feb-26 01:32N 53°55' E 009°11'0 0.0
2015-Feb-26 00:32N 53°55' E 009°11'0 0.0
2015-Feb-25 23:33N 53°55' E 009°11'6 6.0
2015-Feb-25 22:33N 53°59' E 009°17'9 8.5
2015-Feb-25 21:30N 54°08' E 009°20'8 8.5
2015-Feb-25 20:33N 54°12' E 009°33'7 6.9
2015-Feb-25 19:33N 54°17' E 009°40'6 5.9
2015-Feb-25 18:33N 54°21' E 009°47'7 7.1
2015-Feb-25 17:34N 54°21' E 009°59'5 5.4
2015-Feb-25 16:33N 54°22' E 010°08'2 2.2
2015-Feb-25 15:33N 54°23' E 010°11'8 8.5
2015-Feb-25 14:33N 54°30' E 010°19'1010.1
2015-Feb-25 13:34N 54°34' E 010°35'1411.6
2015-Feb-25 12:22N 54°36' E 010°59'1012.2
2015-Feb-25 11:33N 54°35' E 011°16'1212.0
2015-Feb-25 10:33N 54°31' E 011°35'1111.3
2015-Feb-25 09:33N 54°27' E 011°53'1010.4
2015-Feb-25 08:33N 54°29' E 012°11'204856.5
2015-Feb-25 08:33N 54°09' E 012°06'2928.8
2015-Feb-25 07:33N 54°37' E 012°18'9 8.7
2015-Feb-25 06:33N 54°43' E 012°30'1111.0
2015-Feb-25 05:32N 54°47' E 012°47'1111.6
2015-Feb-25 04:33N 54°47' E 013°07'1211.7
2015-Feb-25 03:33N 54°46' E 013°27'1211.7
2015-Feb-25 02:33N 54°44' E 013°47'1211.7
2015-Feb-25 01:33N 54°40' E 014°06'13911.6
2015-Feb-24 13:33N 54°56' E 018°06'1212.0
2015-Feb-24 12:33N 54°56' E 018°27'1211.8
2015-Feb-24 11:33N 54°51' E 018°47'1110.8
2015-Feb-24 10:33N 54°43' E 018°59'1212.1
2015-Feb-24 09:33N 54°33' E 018°50'10 9.8
2015-Feb-24 08:33N 54°32' E 018°33'0 0.1
2015-Feb-24 07:33N 54°32' E 018°33'0 0.0
2015-Feb-24 06:33N 54°32' E 018°33'0 0.0
2015-Feb-24 05:33N 54°32' E 018°33'0 0.0
2015-Feb-24 04:33N 54°32' E 018°33'0 0.0
2015-Feb-24 03:33N 54°32' E 018°33'0 0.0
2015-Feb-24 02:30N 54°32' E 018°33'0 0.0
2015-Feb-24 01:33N 54°32' E 018°33'0 0.0
2015-Feb-24 00:33N 54°32' E 018°33'0 0.0
2015-Feb-23 23:33N 54°32' E 018°33'0 0.0
2015-Feb-23 22:33N 54°32' E 018°33'0 0.0
2015-Feb-23 21:33N 54°32' E 018°33'0 0.0
2015-Feb-23 20:33N 54°32' E 018°33'0 0.0
2015-Feb-23 19:33N 54°32' E 018°33'0 0.0
2015-Feb-23 18:33N 54°32' E 018°33'0 0.0
2015-Feb-23 17:33N 54°32' E 018°33'0 0.0
2015-Feb-23 16:33N 54°32' E 018°33'0 0.0
2015-Feb-23 15:33N 54°32' E 018°33'0 0.0
2015-Feb-23 14:33N 54°32' E 018°33'0 0.0
2015-Feb-23 13:33N 54°32' E 018°33'0 0.0
2015-Feb-23 12:33N 54°32' E 018°33'0 0.0
2015-Feb-23 11:33N 54°32' E 018°33'0 0.0
2015-Feb-23 10:33N 54°32' E 018°33'0 0.0
2015-Feb-23 09:33N 54°32' E 018°33'0 0.0
2015-Feb-23 08:33N 54°32' E 018°33'0 0.0
2015-Feb-23 07:33N 54°32' E 018°33'0 0.0
2015-Feb-23 06:33N 54°32' E 018°33'0 0.0
2015-Feb-23 05:33N 54°32' E 018°33'0 0.0
2015-Feb-23 04:33N 54°32' E 018°33'0 0.0
2015-Feb-23 03:33N 54°32' E 018°33'0 0.0
2015-Feb-23 02:33N 54°32' E 018°33'0 0.0
2015-Feb-23 01:33N 54°32' E 018°33'0 0.0
2015-Feb-23 00:33N 54°32' E 018°33'0 0.0
2015-Feb-22 23:33N 54°32' E 018°33'0 0.0
2015-Feb-22 22:33N 54°32' E 018°33'0 0.0
2015-Feb-22 21:33N 54°32' E 018°33'0 0.0
2015-Feb-22 20:33N 54°32' E 018°33'0 0.0
2015-Feb-22 19:33N 54°32' E 018°33'4 4.1
2015-Feb-22 18:33N 54°32' E 018°40'9 9.3
2015-Feb-22 17:33N 54°37' E 018°54'1110.8
2015-Feb-22 16:33N 54°46' E 018°45'1313.0
2015-Feb-22 15:34N 54°54' E 018°27'1413.2
2015-Feb-22 14:28N 54°54' E 018°02'10813.0
2015-Feb-22 06:09N 54°38' E 014°57'912.6
2015-Feb-22 05:26N 54°37' E 014°41'1512.5
2015-Feb-22 04:13N 54°37' E 014°15'912.8
2015-Feb-22 03:33N 54°39' E 014°01'1312.8
2015-Feb-22 02:34N 54°43' E 013°40'1312.5
2015-Feb-22 01:33N 54°47' E 013°19'2711.6
2015-Feb-21 23:13N 55°06' E 012°46'812.5
2015-Feb-21 22:33N 55°13' E 012°39'1212.0
2015-Feb-21 21:34N 55°25' E 012°38'1111.3
2015-Feb-21 20:34N 55°35' E 012°29'1 1.1
2015-Feb-21 19:33N 55°36' E 012°29'0 0.0
2015-Feb-21 18:33N 55°36' E 012°29'0 0.0
2015-Feb-21 17:33N 55°36' E 012°29'0 0.0
2015-Feb-21 16:33N 55°36' E 012°29'0 0.0
2015-Feb-21 15:33N 55°36' E 012°29'0 0.0
2015-Feb-21 14:33N 55°36' E 012°29'0 0.0
2015-Feb-21 13:33N 55°36' E 012°29'0 0.0
2015-Feb-21 12:33N 55°36' E 012°29'0 0.0
2015-Feb-21 11:33N 55°36' E 012°29'0 0.0
2015-Feb-21 10:33N 55°36' E 012°29'0 0.0
2015-Feb-21 09:33N 55°36' E 012°29'0 0.0
2015-Feb-21 08:33N 55°36' E 012°29'0 0.0
2015-Feb-21 07:33N 55°36' E 012°29'0 0.0
2015-Feb-21 06:33N 55°36' E 012°29'0 0.0
2015-Feb-21 05:33N 55°36' E 012°29'0 0.0
2015-Feb-21 04:33N 55°36' E 012°29'0 0.0
2015-Feb-21 03:33N 55°36' E 012°29'0 0.0
2015-Feb-21 02:33N 55°36' E 012°29'0 0.0
2015-Feb-21 01:33N 55°36' E 012°29'0 0.0
2015-Feb-21 00:33N 55°36' E 012°29'0 0.0
2015-Feb-20 23:33N 55°36' E 012°29'0 0.0
2015-Feb-20 22:33N 55°36' E 012°29'0 0.0
2015-Feb-20 21:33N 55°36' E 012°29'0 0.0
2015-Feb-20 20:33N 55°36' E 012°29'0 0.0
2015-Feb-20 19:33N 55°36' E 012°29'0 0.0
2015-Feb-20 18:33N 55°36' E 012°29'0 0.0
2015-Feb-20 17:33N 55°36' E 012°29'0 0.0
2015-Feb-20 16:33N 55°36' E 012°29'0 0.0
2015-Feb-20 15:33N 55°36' E 012°29'1 1.0
2015-Feb-20 14:34N 55°35' E 012°29'9 8.5
2015-Feb-20 13:33N 55°29' E 012°39'9 9.1
2015-Feb-20 12:33N 55°20' E 012°40'1111.2
2015-Feb-20 11:34N 55°08' E 012°41'2311.2
2015-Feb-20 09:33N 54°46' E 012°45'1411.3
2015-Feb-20 08:20N 54°37' E 012°27'911.3
2015-Feb-20 07:33N 54°30' E 012°16'1010.1
2015-Feb-20 06:34N 54°24' E 012°03'1111.1
2015-Feb-20 05:33N 54°25' E 011°44'1110.8
2015-Feb-20 04:34N 54°30' E 011°28'1211.5
2015-Feb-20 03:34N 54°35' E 011°10'1611.3
2015-Feb-20 02:07N 54°34' E 010°42'611.1
2015-Feb-20 01:33N 54°32' E 010°31'1110.6
2015-Feb-20 00:33N 54°27' E 010°15'7 6.6
2015-Feb-19 23:33N 54°22' E 010°08'0 0.5
2015-Feb-19 22:33N 54°22' E 010°08'0 0.0
2015-Feb-19 21:31N 54°22' E 010°08'1 1.2
2015-Feb-19 20:33N 54°22' E 010°06'7 7.5
2015-Feb-19 19:33N 54°21' E 009°53'4 4.5
2015-Feb-19 18:33N 54°21' E 009°46'8 7.7
2015-Feb-19 17:29N 54°14' E 009°37'12 8.2
2015-Feb-19 16:03N 54°08' E 009°20'4 8.3
2015-Feb-19 15:33N 54°04' E 009°19'6 6.4
2015-Feb-19 14:33N 53°58' E 009°15'5 5.5
2015-Feb-19 13:33N 53°54' E 009°09'5 5.4
2015-Feb-19 12:33N 53°51' E 009°00'1212.0
2015-Feb-19 11:33N 53°55' E 008°41'1212.5
2015-Feb-19 10:33N 53°59' E 008°21'1211.5
2015-Feb-19 09:30N 53°58' E 008°01'1412.4
2015-Feb-19 08:24N 53°55' E 007°38'  

Dump ship's entire track history